Time;durP1;ratioP1;P1;durP2;ratioP2;P2;SDS_P1;SDS_P2;PMS_P1;PMS_P2;Temp;Humidity;BMP_temperature;BMP_pressure;BME280_temperature;BME280_humidity;BME280_pressure;Samples;Min_cycle;Max_cycle;Signal;HPM_P1;HPM_P2
2024/01/31 00:01:16;;;;;;;26.40;11.90;;;;;;;5.97;100.00;103263.78;5086565;28;20024;-73
2024/01/31 00:03:41;;;;;;;27.58;11.40;;;;;;;5.96;100.00;103265.50;5084729;28;20025;-71
2024/01/31 00:06:07;;;;;;;28.20;12.35;;;;;;;5.99;100.00;103260.47;5087404;28;20024;-74
2024/01/31 00:08:32;;;;;;;27.95;12.27;;;;;;;5.97;100.00;103259.47;5080012;28;20442;-71
2024/01/31 00:10:57;;;;;;;25.52;11.70;;;;;;;5.99;100.00;103264.81;5086816;28;20020;-76
2024/01/31 00:13:24;;;;;;;29.77;11.98;;;;;;;5.98;100.00;103258.66;5086218;28;20119;-78
2024/01/31 00:15:50;;;;;;;27.00;11.80;;;;;;;5.97;100.00;103258.50;5086346;28;20031;-79
2024/01/31 00:18:15;;;;;;;27.35;11.43;;;;;;;5.97;100.00;103263.78;5087132;28;20386;-79
2024/01/31 00:20:41;;;;;;;27.90;11.10;;;;;;;5.93;100.00;103270.56;5084878;28;20498;-77
2024/01/31 00:23:06;;;;;;;26.35;11.55;;;;;;;5.91;100.00;103277.41;5087419;28;20097;-79
2024/01/31 00:25:31;;;;;;;27.60;10.90;;;;;;;5.87;100.00;103284.22;5084274;28;20025;-72
2024/01/31 00:27:58;;;;;;;27.27;11.07;;;;;;;5.90;100.00;103286.13;5086514;28;20405;-77
2024/01/31 00:30:23;;;;;;;28.48;10.57;;;;;;;5.85;100.00;103285.81;5084683;28;20028;-72
2024/01/31 00:32:48;;;;;;;28.15;11.07;;;;;;;5.83;100.00;103299.69;5084954;28;20040;-74
2024/01/31 00:35:14;;;;;;;25.67;9.90;;;;;;;5.81;100.00;103291.72;5084865;28;20082;-76
2024/01/31 00:37:39;;;;;;;25.45;9.77;;;;;;;5.81;100.00;103296.97;5083909;28;20021;-75
2024/01/31 00:40:05;;;;;;;25.27;9.70;;;;;;;5.83;100.00;103297.06;5085586;28;20517;-75
2024/01/31 00:42:31;;;;;;;26.58;9.77;;;;;;;5.77;100.00;103297.56;5084013;28;20117;-76
2024/01/31 00:44:57;;;;;;;25.08;9.77;;;;;;;5.77;100.00;103308.06;5085992;28;20474;-75
2024/01/31 00:47:22;;;;;;;25.83;9.73;;;;;;;5.74;100.00;103302.63;5083548;28;20382;-75
2024/01/31 00:49:47;;;;;;;25.75;8.98;;;;;;;5.73;100.00;103300.81;5084475;28;20398;-73
2024/01/31 00:52:13;;;;;;;24.73;8.40;;;;;;;5.74;100.00;103303.53;5086028;28;20383;-73
2024/01/31 00:54:38;;;;;;;26.17;8.88;;;;;;;5.71;100.00;103300.72;5083287;28;20467;-77
2024/01/31 00:57:05;;;;;;;25.30;9.18;;;;;;;5.71;100.00;103298.09;5086509;28;20486;-74
2024/01/31 00:59:30;;;;;;;26.48;8.32;;;;;;;5.70;100.00;103305.88;5082990;28;20035;-76
2024/01/31 01:01:55;;;;;;;25.92;8.27;;;;;;;5.72;100.00;103310.41;5085489;28;20107;-79
2024/01/31 01:04:21;;;;;;;23.27;7.65;;;;;;;5.68;100.00;103302.22;5084314;28;20028;-75
2024/01/31 01:06:46;;;;;;;23.23;7.03;;;;;;;5.65;100.00;103313.47;5083886;28;20521;-78
2024/01/31 01:09:12;;;;;;;23.27;6.55;;;;;;;5.68;100.00;103317.97;5084776;28;20086;-72
2024/01/31 01:11:37;;;;;;;21.02;6.20;;;;;;;5.68;100.00;103316.28;5082508;28;20103;-73
2024/01/31 01:14:02;;;;;;;21.83;6.10;;;;;;;5.67;100.00;103310.94;5084940;28;20131;-72
2024/01/31 01:16:28;;;;;;;22.08;5.50;;;;;;;5.65;100.00;103310.84;5083598;28;20032;-72
2024/01/31 01:18:54;;;;;;;21.73;5.05;;;;;;;5.67;100.00;103318.81;5083682;28;20391;-72
2024/01/31 01:21:19;;;;;;;21.73;5.18;;;;;;;5.62;100.00;103313.25;5084212;28;20054;-77
2024/01/31 01:23:45;;;;;;;21.08;5.18;;;;;;;5.62;100.00;103313.25;5083335;28;20056;-72
2024/01/31 01:26:11;;;;;;;20.75;5.25;;;;;;;5.62;100.00;103317.59;5085294;28;20058;-74
2024/01/31 01:28:38;;;;;;;20.70;5.22;;;;;;;5.63;100.00;103311.53;5082556;28;20040;-72
2024/01/31 01:31:04;;;;;;;21.10;5.43;;;;;;;5.62;100.00;103315.88;5078704;28;20426;-72
2024/01/31 01:33:29;;;;;;;21.15;5.28;;;;;;;5.65;100.00;103309.91;5085003;28;20036;-72
2024/01/31 01:35:54;;;;;;;20.45;5.38;;;;;;;5.65;100.00;103318.72;5083346;28;20032;-73
2024/01/31 01:38:20;;;;;;;22.30;5.43;;;;;;;5.65;100.00;103308.22;5083686;28;20468;-73
2024/01/31 01:40:45;;;;;;;22.73;5.20;;;;;;;5.68;100.00;103312.72;5083289;28;20141;-72
2024/01/31 01:43:18;;;;;;;19.67;4.72;;;;;;;5.65;100.00;103317.78;5082536;28;20025;-75
2024/01/31 01:45:43;;;;;;;;;;;;;;;5.83;100.00;103318.06;5084016;28;20028;-74
2024/01/31 01:48:09;;;;;;;20.42;4.82;;;;;;;5.64;100.00;103314.25;5081957;28;19917;-71
2024/01/31 01:50:35;;;;;;;21.02;4.47;;;;;;;5.61;100.00;103311.44;5085502;28;20076;-73
2024/01/31 01:53:01;;;;;;;22.88;4.97;;;;;;;5.60;100.00;103320.09;5081020;28;20037;-71
2024/01/31 01:55:27;;;;;;;20.60;4.55;;;;;;;5.57;100.00;103312.03;5084086;28;20073;-71
2024/01/31 01:57:53;;;;;;;20.27;4.10;;;;;;;5.58;100.00;103313.88;5083292;28;20032;-71
2024/01/31 02:00:19;;;;;;;19.27;4.60;;;;;;;5.54;100.00;103320.63;5083214;28;20024;-71
2024/01/31 02:02:44;;;;;;;21.58;4.78;;;;;;;5.52;100.00;103310.81;5083743;28;20028;-71
2024/01/31 02:05:10;;;;;;;21.02;5.28;;;;;;;5.52;100.00;103309.13;5082156;28;20024;-72
2024/01/31 02:07:36;;;;;;;20.52;4.95;;;;;;;5.52;100.00;103309.13;5085563;28;20475;-73
2024/01/31 02:10:01;;;;;;;20.02;4.78;;;;;;;5.54;100.00;103307.50;5082552;28;20040;-77
2024/01/31 02:12:27;;;;;;;21.08;4.68;;;;;;;5.55;100.00;103311.94;5083256;28;20139;-79
2024/01/31 02:14:53;;;;;;;21.35;4.70;;;;;;;5.47;100.00;103307.91;5083441;28;20028;-78
2024/01/31 02:17:18;;;;;;;18.95;4.65;;;;;;;5.46;100.00;103308.75;5083280;28;20111;-75
2024/01/31 02:19:43;;;;;;;19.40;4.45;;;;;;;5.49;100.00;103303.69;5084998;28;20034;-78
2024/01/31 02:22:27;;;;;;;19.85;4.90;;;;;;;5.54;100.00;103304.88;5081958;28;20037;-77
2024/01/31 02:24:52;;;;;;;19.55;4.63;;;;;;;5.42;100.00;103298.84;5085777;28;20030;-77
2024/01/31 02:27:17;;;;;;;21.45;5.20;;;;;;;5.41;100.00;103294.41;5084127;28;20107;-77
2024/01/31 02:29:43;;;;;;;21.98;5.75;;;;;;;5.40;100.00;103300.44;5082283;28;20082;-78
2024/01/31 02:32:09;;;;;;;19.98;5.10;;;;;;;5.43;100.00;103303.28;5080904;28;20020;-77
2024/01/31 02:34:34;;;;;;;20.58;5.40;;;;;;;5.38;100.00;103302.97;5077828;28;20036;-76
2024/01/31 02:37:00;;;;;;;21.00;5.55;;;;;;;5.42;100.00;103306.72;5084320;28;20020;-71
2024/01/31 02:39:25;;;;;;;21.02;5.55;;;;;;;5.45;100.00;103313.91;5082576;28;20028;-71
2024/01/31 02:41:52;;;;;;;21.55;5.70;;;;;;;5.42;100.00;103306.72;5083457;28;20111;-70
2024/01/31 02:44:18;;;;;;;21.92;6.25;;;;;;;5.42;100.00;103309.34;5083798;28;20043;-71
2024/01/31 02:46:43;;;;;;;23.08;6.18;;;;;;;5.38;100.00;103308.22;5081965;28;20035;-73
2024/01/31 02:49:09;;;;;;;21.77;5.97;;;;;;;5.34;100.00;103302.69;5083607;28;20103;-73
2024/01/31 02:51:34;;;;;;;21.08;5.90;;;;;;;5.33;100.00;103309.66;5077004;28;20048;-71
2024/01/31 02:54:00;;;;;;;22.00;6.10;;;;;;;5.33;100.00;103308.72;5082601;28;20378;-78
2024/01/31 02:56:25;;;;;;;23.10;6.38;;;;;;;5.35;100.00;103301.88;5082449;28;20040;-73
2024/01/31 02:58:51;;;;;;;24.35;6.75;;;;;;;5.35;100.00;103296.63;5081325;28;20397;-73
2024/01/31 03:01:16;;;;;;;23.90;6.60;;;;;;;5.32;100.00;103292.09;5083337;28;20120;-71
2024/01/31 03:03:41;;;;;;;22.98;6.80;;;;;;;5.34;100.00;103290.47;5081356;28;20387;-72
2024/01/31 03:06:07;;;;;;;23.55;6.90;;;;;;;5.32;100.00;103281.59;5084334;28;20020;-70
2024/01/31 03:08:32;;;;;;;22.85;7.18;;;;;;;5.38;100.00;103289.84;5080133;28;20465;-71
2024/01/31 03:10:57;;;;;;;24.90;7.25;;;;;;;5.41;100.00;103281.28;5082176;28;20034;-73
2024/01/31 03:13:23;;;;;;;22.08;6.90;;;;;;;5.44;100.00;103281.47;5082383;28;20544;-75
2024/01/31 03:15:48;;;;;;;25.80;7.00;;;;;;;5.46;100.00;103273.72;5086475;28;20028;-70
2024/01/31 03:18:13;;;;;;;24.88;7.43;;;;;;;5.45;100.00;103277.16;5087616;28;20077;-70
2024/01/31 03:20:39;;;;;;;25.58;7.85;;;;;;;5.47;100.00;103275.53;5084680;28;20039;-71
2024/01/31 03:23:04;;;;;;;23.70;7.53;;;;;;;5.49;100.00;103280.06;5088101;28;20177;-70
2024/01/31 03:25:29;;;;;;;23.40;7.32;;;;;;;5.48;100.00;103267.75;5083943;28;20028;-70
2024/01/31 03:27:55;;;;;;;22.42;6.88;;;;;;;5.43;100.00;103270.91;5086698;28;20032;-70
2024/01/31 03:30:21;;;;;;;24.10;7.53;;;;;;;5.43;100.00;103274.41;5086670;28;20024;-73
2024/01/31 03:32:46;;;;;;;25.48;7.90;;;;;;;5.39;100.00;103262.84;5085492;28;20094;-77
2024/01/31 03:35:12;;;;;;;24.60;8.48;;;;;;;5.40;100.00;103261.09;5087461;28;20032;-72
2024/01/31 03:37:37;;;;;;;25.98;8.45;;;;;;;5.40;100.00;103261.09;5084591;28;20078;-71
2024/01/31 03:40:06;;;;;;;23.40;7.57;;;;;;;5.39;100.00;103261.94;5087443;28;20028;-72
2024/01/31 03:42:32;;;;;;;23.65;7.50;;;;;;;5.37;100.00;103260.91;5084600;28;20123;-70
2024/01/31 03:44:57;;;;;;;25.65;7.80;;;;;;;5.34;100.00;103264.22;5087065;28;20033;-70
2024/01/31 03:47:23;;;;;;;23.63;7.78;;;;;;;5.34;100.00;103258.09;5085853;28;20038;-70
2024/01/31 03:49:49;;;;;;;22.27;7.78;;;;;;;5.36;100.00;103262.63;5085229;28;20070;-71
2024/01/31 03:52:15;;;;;;;27.02;8.18;;;;;;;5.35;100.00;103259.91;5087098;28;20028;-71
2024/01/31 03:54:40;;;;;;;24.10;7.95;;;;;;;5.32;100.00;103259.72;5082681;28;20594;-74
2024/01/31 03:57:06;;;;;;;24.90;8.23;;;;;;;5.33;100.00;103253.66;5086615;28;20035;-70
2024/01/31 03:59:31;;;;;;;24.60;8.32;;;;;;;5.32;100.00;103258.00;5084405;28;20376;-70
2024/01/31 04:01:56;;;;;;;26.08;8.20;;;;;;;5.33;100.00;103256.28;5068159;28;20467;-70
2024/01/31 04:04:22;;;;;;;24.20;8.20;;;;;;;5.37;100.00;103263.53;5086138;28;20032;-70
2024/01/31 04:06:47;;;;;;;23.45;8.07;;;;;;;5.34;100.00;103258.09;5084844;28;20029;-70
2024/01/31 04:09:13;;;;;;;24.00;7.82;;;;;;;5.36;100.00;103260.00;5086908;28;20478;-73
2024/01/31 04:11:38;;;;;;;25.05;8.25;;;;;;;5.33;100.00;103251.94;5083955;28;20495;-76
2024/01/31 04:14:03;;;;;;;26.38;8.73;;;;;;;5.32;100.00;103249.22;5086861;28;20028;-72
2024/01/31 04:16:29;;;;;;;25.02;9.18;;;;;;;5.32;100.00;103246.59;5084462;28;20032;-70
2024/01/31 04:18:54;;;;;;;24.88;8.60;;;;;;;5.28;100.00;103248.13;5086048;28;20032;-74
2024/01/31 04:21:24;;;;;;;29.10;9.07;;;;;;;5.26;100.00;103248.81;5085593;28;20042;-70
2024/01/31 04:23:49;;;;;;;25.45;9.02;;;;;;;5.26;100.00;103252.38;5084694;28;20045;-71
2024/01/31 04:26:15;;;;;;;28.38;10.60;;;;;;;5.26;100.00;103257.59;5085725;28;20036;-71
2024/01/31 04:28:40;;;;;;;25.70;9.77;;;;;;;5.22;100.00;103255.59;5083525;28;20033;-71
2024/01/31 04:31:15;;;;;;;26.17;10.43;;;;;;;5.30;100.00;103258.69;5085702;28;20027;-70
2024/01/31 04:33:42;;;;;;;27.23;11.20;;;;;;;5.27;100.00;103248.00;5080533;28;20125;-74
2024/01/31 04:36:07;;;;;;;28.15;12.20;;;;;;;5.26;100.00;103255.00;5087444;28;20028;-75
2024/01/31 04:38:33;;;;;;;28.55;12.30;;;;;;;5.26;100.00;103251.44;5087079;28;20030;-78
2024/01/31 04:40:59;;;;;;;27.63;12.18;;;;;;;5.24;100.00;103254.88;5085198;28;20028;-77
2024/01/31 04:43:24;;;;;;;29.25;12.82;;;;;;;5.24;100.00;103252.28;5084198;28;20032;-78
2024/01/31 04:45:49;;;;;;;30.13;13.25;;;;;;;5.23;100.00;103255.69;5067867;28;20081;-76
2024/01/31 04:48:15;;;;;;;29.48;13.75;;;;;;;5.22;100.00;103253.88;5084251;28;20548;-78
2024/01/31 04:50:40;;;;;;;28.67;13.15;;;;;;;5.24;100.00;103256.59;5086491;28;20497;-72
2024/01/31 04:53:05;;;;;;;30.25;13.85;;;;;;;5.23;100.00;103257.41;5078952;28;20024;-74
2024/01/31 04:55:31;;;;;;;32.13;13.90;;;;;;;5.22;100.00;103256.47;5085897;28;20126;-71
2024/01/31 04:57:56;;;;;;;31.55;13.98;;;;;;;5.24;100.00;103251.34;5084501;28;20032;-70
2024/01/31 05:00:23;;;;;;;33.60;14.98;;;;;;;5.24;100.00;103249.66;5084746;28;20029;-70
2024/01/31 05:02:50;;;;;;;31.80;15.13;;;;;;;5.25;100.00;103253.16;5085290;28;20032;-70
2024/01/31 05:05:15;;;;;;;32.72;14.98;;;;;;;5.25;100.00;103253.16;5082446;28;20368;-72
2024/01/31 05:07:40;;;;;;;31.38;15.10;;;;;;;5.22;100.00;103247.72;5086530;28;20035;-70
2024/01/31 05:10:06;;;;;;;31.20;15.32;;;;;;;5.21;100.00;103245.91;5078581;28;20048;-72
2024/01/31 05:12:31;;;;;;;32.70;15.23;;;;;;;5.19;100.00;103247.53;5085571;28;20024;-72
2024/01/31 05:14:57;;;;;;;31.13;15.68;;;;;;;5.19;100.00;103250.16;5083860;28;20032;-70
2024/01/31 05:17:22;;;;;;;30.70;14.45;;;;;;;5.18;100.00;103241.34;5084090;28;20029;-71
2024/01/31 05:19:48;;;;;;;31.63;14.73;;;;;;;5.22;100.00;103240.75;5084939;28;20111;-70
2024/01/31 05:22:13;;;;;;;32.75;15.05;;;;;;;5.21;100.00;103241.59;5081610;28;20029;-70
2024/01/31 05:24:39;;;;;;;31.90;15.55;;;;;;;5.21;100.00;103244.19;5085379;28;20340;-71
2024/01/31 05:27:05;;;;;;;32.75;15.88;;;;;;;5.22;100.00;103238.13;5082369;28;20479;-70
2024/01/31 05:29:30;;;;;;;30.70;15.02;;;;;;;5.21;100.00;103235.41;5085167;28;20038;-72
2024/01/31 05:31:56;;;;;;;33.22;15.63;;;;;;;5.20;100.00;103241.50;5083931;28;20089;-70
2024/01/31 05:34:22;;;;;;;32.25;15.63;;;;;;;5.21;100.00;103245.91;5083584;28;20438;-70
2024/01/31 05:36:48;;;;;;;31.92;15.95;;;;;;;5.21;100.00;103236.34;5083160;28;20035;-71
2024/01/31 05:39:14;;;;;;;32.05;15.50;;;;;;;5.20;100.00;103249.34;5080592;28;20450;-70
2024/01/31 05:41:43;;;;;;;31.92;15.45;;;;;;;5.20;100.00;103250.25;5085507;28;20024;-70
2024/01/31 05:44:10;;;;;;;31.45;15.30;;;;;;;5.17;100.00;103252.69;5077179;28;20029;-70
2024/01/31 05:46:36;;;;;;;32.28;15.50;;;;;;;5.18;100.00;103243.97;5085360;28;20067;-75
2024/01/31 05:49:02;;;;;;;32.13;15.88;;;;;;;5.17;100.00;103247.44;5081276;28;20068;-77
2024/01/31 05:51:30;;;;;;;32.85;15.68;;;;;;;5.17;100.00;103250.06;5084552;28;20087;-73
2024/01/31 05:53:56;;;;;;;31.80;16.05;;;;;;;5.17;100.00;103244.81;5083211;28;20050;-75
2024/01/31 05:56:22;;;;;;;33.15;16.05;;;;;;;5.18;100.00;103248.31;5083058;28;20036;-73
2024/01/31 05:58:48;;;;;;;32.03;16.27;;;;;;;5.18;100.00;103246.59;5084531;28;20024;-73
2024/01/31 06:01:13;;;;;;;31.50;16.83;;;;;;;5.20;100.00;103249.34;5081973;28;20032;-72
2024/01/31 06:03:39;;;;;;;32.65;16.67;;;;;;;5.19;100.00;103240.56;5085341;28;20075;-70
2024/01/31 06:06:06;;;;;;;32.15;16.98;;;;;;;5.18;100.00;103243.09;5081969;28;20631;-70
2024/01/31 06:08:32;;;;;;;32.65;16.95;;;;;;;5.17;100.00;103249.13;5084283;28;20077;-75
2024/01/31 06:11:04;;;;;;;32.13;17.00;;;;;;;5.16;100.00;103248.22;5082736;28;20433;-70
2024/01/31 06:13:30;;;;;;;33.70;16.98;;;;;;;5.14;100.00;103244.63;5084165;28;20388;-73
2024/01/31 06:15:55;;;;;;;32.30;17.02;;;;;;;5.13;100.00;103250.66;5083053;28;20028;-70
2024/01/31 06:18:22;;;;;;;33.47;18.00;;;;;;;5.15;100.00;103245.50;5082638;28;20491;-70
2024/01/31 06:20:48;;;;;;;32.95;17.63;;;;;;;5.15;100.00;103240.25;5084302;28;20032;-70
2024/01/31 06:23:14;;;;;;;34.10;18.63;;;;;;;5.14;100.00;103233.19;5081533;28;20514;-70
2024/01/31 06:25:39;;;;;;;33.35;17.42;;;;;;;5.15;100.00;103228.06;5084553;28;20052;-71
2024/01/31 06:28:07;;;;;;;32.20;18.25;;;;;;;5.17;100.00;103228.16;5081519;28;20123;-70
2024/01/31 06:30:48;;;;;;;32.63;18.75;;;;;;;5.14;100.00;103218.38;5082812;28;20085;-70
2024/01/31 06:33:14;;;;;;;35.17;18.80;;;;;;;5.18;100.00;103215.13;5078227;28;20036;-70
2024/01/31 06:35:47;;;;;;;35.22;19.42;;;;;;;5.17;100.00;103215.97;5084697;28;20490;-71
2024/01/31 06:38:13;;;;;;;35.35;19.58;;;;;;;5.15;100.00;103214.03;5076719;28;20032;-70
2024/01/31 06:40:39;;;;;;;35.05;19.38;;;;;;;5.14;100.00;103214.84;5084474;28;20081;-71
2024/01/31 06:43:04;;;;;;;35.63;20.27;;;;;;;5.16;100.00;103203.66;5081301;28;20107;-70
2024/01/31 06:45:30;;;;;;;36.42;20.60;;;;;;;5.17;100.00;103192.34;5083641;28;20116;-71
2024/01/31 06:47:55;;;;;;;35.08;20.05;;;;;;;5.16;100.00;103195.78;5082460;28;20085;-76
2024/01/31 06:50:21;;;;;;;35.75;21.50;;;;;;;5.18;100.00;103188.00;5082099;28;20450;-77
2024/01/31 06:52:47;;;;;;;37.28;21.27;;;;;;;5.15;100.00;103199.19;5082446;28;20024;-77
2024/01/31 06:55:16;;;;;;;37.63;21.05;;;;;;;5.15;100.00;103196.59;5079552;28;20387;-79
2024/01/31 06:57:42;;;;;;;37.78;20.98;;;;;;;5.14;100.00;103197.41;5084663;28;20031;-78
2024/01/31 07:00:10;;;;;;;37.70;21.08;;;;;;;5.16;100.00;103195.78;5077201;28;20033;-71
2024/01/31 07:02:36;;;;;;;37.60;22.08;;;;;;;5.19;100.00;103208.19;5083994;28;20081;-73
2024/01/31 07:05:04;;;;;;;36.15;21.77;;;;;;;5.17;100.00;103209.78;5081853;28;20052;-73
2024/01/31 07:07:31;;;;;;;39.15;22.10;;;;;;;5.16;100.00;103222.00;5083364;28;20138;-75
2024/01/31 07:09:56;;;;;;;37.80;22.25;;;;;;;5.15;100.00;103230.66;5082462;28;20042;-71
2024/01/31 07:12:21;;;;;;;38.08;22.65;;;;;;;5.14;100.00;103238.44;5082484;28;20020;-71
2024/01/31 07:14:47;;;;;;;37.55;22.65;;;;;;;5.14;100.00;103248.94;5083628;28;20048;-71
2024/01/31 07:17:12;;;;;;;38.72;24.00;;;;;;;5.15;100.00;103262.13;5079492;28;20033;-72
2024/01/31 07:19:43;;;;;;;40.85;23.75;;;;;;;5.15;100.00;103267.38;5084595;28;20032;-71
2024/01/31 07:22:09;;;;;;;39.03;22.95;;;;;;;5.17;100.00;103270.09;5077014;28;20033;-72
2024/01/31 07:24:35;;;;;;;39.75;23.30;;;;;;;5.15;100.00;103275.25;5082178;28;20044;-72
2024/01/31 07:27:02;;;;;;;39.38;23.27;;;;;;;5.14;100.00;103286.56;5081805;28;20359;-72
2024/01/31 07:29:27;;;;;;;38.38;23.08;;;;;;;5.17;100.00;103291.09;5081525;28;20387;-72
2024/01/31 07:31:53;;;;;;;38.67;22.80;;;;;;;5.17;100.00;103298.94;5082490;28;20024;-73
2024/01/31 07:34:19;;;;;;;39.17;22.77;;;;;;;5.18;100.00;103293.81;5081587;28;20073;-71
2024/01/31 07:36:44;;;;;;;39.20;23.10;;;;;;;5.18;100.00;103292.91;5083812;28;20058;-77
2024/01/31 07:39:10;;;;;;;37.55;23.58;;;;;;;5.17;100.00;103297.25;5080518;28;20103;-77
2024/01/31 07:41:36;;;;;;;39.15;24.65;;;;;;;5.17;100.00;103302.50;5083804;28;20479;-77
2024/01/31 07:44:01;;;;;;;40.90;24.60;;;;;;;5.14;100.00;103296.13;5081297;28;20048;-77
2024/01/31 07:46:27;;;;;;;41.17;24.42;;;;;;;5.13;100.00;103300.47;5082674;28;20027;-78
2024/01/31 07:48:52;;;;;;;40.45;23.92;;;;;;;5.14;100.00;103294.44;5082635;28;20024;-74
2024/01/31 07:51:18;;;;;;;38.65;23.55;;;;;;;5.15;100.00;103298.84;5075782;28;20024;-76
2024/01/31 07:53:43;;;;;;;40.38;24.23;;;;;;;5.16;100.00;103300.69;5082356;28;20036;-71
2024/01/31 07:56:09;;;;;;;41.97;24.98;;;;;;;5.17;100.00;103294.63;5081138;28;20032;-76
2024/01/31 07:58:34;;;;;;;42.20;24.85;;;;;;;5.17;100.00;103298.94;5081170;28;20025;-75
2024/01/31 08:01:00;;;;;;;42.17;25.30;;;;;;;5.18;100.00;103295.53;5084339;28;20490;-77
2024/01/31 08:03:25;;;;;;;41.85;24.85;;;;;;;5.18;100.00;103292.91;5084152;28;20041;-75
2024/01/31 08:05:50;;;;;;;42.17;24.83;;;;;;;5.19;100.00;103290.38;5085708;28;20027;-78
2024/01/31 08:08:16;;;;;;;38.90;23.08;;;;;;;5.22;100.00;103290.59;5084834;28;20427;-78
2024/01/31 08:10:41;;;;;;;42.55;24.65;;;;;;;5.26;100.00;103288.16;5086214;28;20020;-79
2024/01/31 08:13:07;;;;;;;39.70;23.85;;;;;;;5.26;100.00;103281.22;5083127;28;20039;-78
2024/01/31 08:15:34;;;;;;;39.38;24.52;;;;;;;5.27;100.00;103279.50;5087020;28;20153;-79
2024/01/31 08:18:00;;;;;;;42.00;24.77;;;;;;;5.29;100.00;103275.25;5084360;28;20036;-78
2024/01/31 08:20:25;;;;;;;43.30;25.70;;;;;;;5.30;100.00;103283.22;5087706;28;20398;-78
2024/01/31 08:22:51;;;;;;;40.55;24.73;;;;;;;5.32;100.00;103288.56;5084419;28;20032;-79
2024/01/31 08:25:17;;;;;;;44.95;26.27;;;;;;;5.33;100.00;103282.50;5086587;28;20047;-78
2024/01/31 08:27:42;;;;;;;43.45;25.77;;;;;;;5.35;100.00;103286.16;5085160;28;20245;-79
2024/01/31 08:30:08;;;;;;;42.72;25.38;;;;;;;5.38;100.00;103291.59;5085101;28;20076;-73
2024/01/31 08:32:34;;;;;;;44.08;25.95;;;;;;;5.39;100.00;103285.53;5085079;28;20039;-72
2024/01/31 08:35:01;;;;;;;42.80;25.40;;;;;;;5.41;100.00;103278.66;5086073;28;20111;-72
2024/01/31 08:37:26;;;;;;;43.75;25.20;;;;;;;5.45;100.00;103277.16;5083666;28;20111;-72
2024/01/31 08:39:52;;;;;;;45.15;25.88;;;;;;;5.46;100.00;103274.63;5086696;28;20034;-79
2024/01/31 08:42:17;;;;;;;42.78;25.48;;;;;;;5.48;100.00;103272.09;5083023;28;20020;-79
2024/01/31 08:44:43;;;;;;;42.92;25.65;;;;;;;5.53;100.00;103263.72;5085080;28;20036;-78
2024/01/31 08:47:08;;;;;;;44.40;24.95;;;;;;;5.59;100.00;103258.84;5084376;28;20073;-78
2024/01/31 08:49:34;;;;;;;44.50;24.70;;;;;;;5.65;100.00;103257.41;5084416;28;20107;-77
2024/01/31 08:51:59;;;;;;;42.78;25.05;;;;;;;5.64;100.00;103260.88;5085767;28;20031;-78
2024/01/31 08:54:25;;;;;;;44.10;24.73;;;;;;;5.67;100.00;103251.47;5082057;28;20056;-79
2024/01/31 08:56:50;;;;;;;45.42;26.27;;;;;;;5.69;100.00;103255.06;5086824;28;20032;-76
2024/01/31 08:59:17;;;;;;;43.85;25.23;;;;;;;5.73;100.00;103248.31;5083204;28;20028;-79
2024/01/31 09:01:46;;;;;;;44.92;25.98;;;;;;;5.72;100.00;103246.50;5085515;28;20059;-73
2024/01/31 09:04:12;;;;;;;44.72;26.40;;;;;;;5.72;100.00;103249.13;5082438;28;20433;-72
2024/01/31 09:06:40;;;;;;;44.60;25.38;;;;;;;5.73;100.00;103246.59;5085278;28;20104;-72
2024/01/31 09:09:06;;;;;;;44.25;26.20;;;;;;;5.73;100.00;103233.47;5084411;28;20024;-72
2024/01/31 09:11:32;;;;;;;44.00;25.70;;;;;;;5.76;100.00;103233.66;5082705;28;20027;-75
2024/01/31 09:13:57;;;;;;;45.42;26.45;;;;;;;5.80;100.00;103228.63;5085720;28;20081;-72
2024/01/31 09:16:23;;;;;;;46.47;26.80;;;;;;;5.80;100.00;103224.25;5082607;28;20040;-72
2024/01/31 09:18:49;;;;;;;48.45;27.13;;;;;;;5.84;100.00;103220.09;5086249;28;20055;-71
2024/01/31 09:21:26;;;;;;;45.15;26.17;;;;;;;5.86;100.00;103221.13;5083277;28;20116;-72
2024/01/31 09:23:52;;;;;;;44.75;26.70;;;;;;;5.85;100.00;103203.53;5078805;28;20391;-72
2024/01/31 09:26:17;;;;;;;46.28;27.05;;;;;;;5.84;100.00;103205.28;5085851;28;20032;-78
2024/01/31 09:28:42;;;;;;;47.67;27.50;;;;;;;5.89;100.00;103198.56;5083689;28;20484;-77
2024/01/31 09:31:08;;;;;;;45.63;26.13;;;;;;;5.93;100.00;103202.31;5084553;28;20499;-77
2024/01/31 09:33:33;;;;;;;44.25;25.75;;;;;;;5.92;100.00;103189.97;5084401;28;20386;-77
2024/01/31 09:35:59;;;;;;;44.85;26.67;;;;;;;5.93;100.00;103195.31;5083113;28;20117;-78
2024/01/31 09:38:25;;;;;;;47.15;27.83;;;;;;;5.98;100.00;103192.09;5085558;28;20031;-75
2024/01/31 09:40:51;;;;;;;46.47;27.17;;;;;;;5.97;100.00;103191.22;5086254;28;20036;-75
2024/01/31 09:43:17;;;;;;;44.53;27.08;;;;;;;6.00;100.00;103188.78;5082211;28;20024;-77
2024/01/31 09:45:43;;;;;;;45.00;27.35;;;;;;;6.04;100.00;103189.84;5084848;28;20387;-79
2024/01/31 09:48:12;;;;;;;44.55;27.50;;;;;;;6.06;100.00;103180.34;5083448;28;20028;-78
2024/01/31 09:50:37;;;;;;;45.10;27.40;;;;;;;6.13;100.00;103176.34;5079020;28;20375;-74
2024/01/31 09:53:03;;;;;;;44.47;27.50;;;;;;;6.17;100.00;103176.63;5081897;28;20032;-79
2024/01/31 09:55:29;;;;;;;43.05;26.40;;;;;;;6.23;100.00;103173.47;5085025;28;20032;-75
2024/01/31 09:57:55;;;;;;;42.08;25.58;;;;;;;6.34;100.00;103172.38;5082719;28;20032;-72
2024/01/31 10:00:21;;;;;;;40.03;24.42;;;;;;;6.40;100.00;103175.34;5083894;28;20384;-71
2024/01/31 10:02:50;;;;;;;40.47;24.42;;;;;;;6.50;100.00;103171.56;5084135;28;20077;-71
2024/01/31 10:05:15;;;;;;;38.72;22.95;;;;;;;6.56;100.00;103173.63;5083148;28;20110;-71
2024/01/31 10:07:40;;;;;;;37.60;22.45;;;;;;;6.55;100.00;103172.75;5084532;28;20024;-71
2024/01/31 10:10:06;;;;;;;35.20;20.63;;;;;;;6.55;100.00;103177.06;5081803;28;20024;-72
2024/01/31 10:12:32;;;;;;;34.08;20.30;;;;;;;6.59;100.00;103179.06;5077687;28;20391;-74
2024/01/31 10:14:57;;;;;;;32.30;19.60;;;;;;;6.65;100.00;103183.78;5084250;28;20024;-72
2024/01/31 10:17:23;;;;;;;32.38;18.95;;;;;;;6.67;100.00;103187.38;5082843;28;20081;-71
2024/01/31 10:19:49;;;;;;;31.35;18.15;;;;;;;6.68;100.00;103186.56;5083017;28;20107;-71
2024/01/31 10:22:15;;;;;;;31.75;18.23;;;;;;;6.68;100.00;103183.94;5083650;28;20024;-72
2024/01/31 10:24:45;;;;;;;31.40;18.08;;;;;;;6.63;100.00;103189.84;5081450;28;20045;-78
2024/01/31 10:27:10;;;;;;;31.55;17.80;;;;;;;6.63;100.00;103192.47;5084456;28;20047;-73
2024/01/31 10:29:37;;;;;;;30.88;18.58;;;;;;;6.66;100.00;103199.63;5081629;28;20040;-75
2024/01/31 10:32:03;;;;;;;28.73;16.73;;;;;;;6.67;100.00;103201.47;5077466;28;20029;-76
2024/01/31 10:34:29;;;;;;;29.30;16.48;;;;;;;6.66;100.00;103189.13;5083028;28;20517;-75
2024/01/31 10:36:55;;;;;;;29.92;17.13;;;;;;;6.68;100.00;103194.47;5082101;28;20036;-77
2024/01/31 10:39:21;;;;;;;30.15;16.65;;;;;;;6.68;100.00;103190.09;5083194;28;20479;-73
2024/01/31 10:41:50;;;;;;;28.02;16.45;;;;;;;6.71;100.00;103197.25;5083299;28;20024;-72
2024/01/31 10:44:15;;;;;;;27.17;15.45;;;;;;;6.70;100.00;103196.38;5082274;28;20037;-72
2024/01/31 10:46:43;;;;;;;28.10;15.73;;;;;;;6.73;100.00;103193.91;5084127;28;20320;-75
2024/01/31 10:49:11;;;;;;;27.58;15.63;;;;;;;6.73;100.00;103198.28;5081061;28;20028;-72
2024/01/31 10:51:38;;;;;;;27.77;15.52;;;;;;;6.68;100.00;103197.09;5084327;28;20028;-71
2024/01/31 10:54:06;;;;;;;25.67;14.63;;;;;;;6.67;100.00;103183.06;5077265;28;20028;-71
2024/01/31 10:56:33;;;;;;;26.40;14.82;;;;;;;6.68;100.00;103176.06;5084417;28;20416;-71
2024/01/31 10:58:58;;;;;;;26.63;15.13;;;;;;;6.69;100.00;103180.50;5080185;28;20111;-72
2024/01/31 11:01:31;;;;;;;26.13;14.73;;;;;;;6.70;100.00;103166.53;5083154;28;20124;-75
2024/01/31 11:03:57;;;;;;;26.05;14.98;;;;;;;6.69;100.00;103175.25;5081569;28;20039;-77
2024/01/31 11:06:30;;;;;;;25.20;13.93;;;;;;;6.71;100.00;103173.59;5069823;28;20467;-72